createdAt,value
2023-04-25T00:00:24.172Z,99866.81
2023-04-25T00:02:51.976Z,99859.66
2023-04-25T00:05:20.836Z,99864.16
2023-04-25T00:07:48.722Z,99866.91
2023-04-25T00:10:16.942Z,99858.09
2023-04-25T00:12:44.667Z,99866.13
2023-04-25T00:15:13.097Z,99861.88
2023-04-25T00:17:41.029Z,99868.06
2023-04-25T00:20:12.136Z,99865.34
2023-04-25T00:22:39.882Z,99863.78
2023-04-25T00:25:08.332Z,99861.88
2023-04-25T00:27:36.141Z,99864.53
2023-04-25T00:30:04.636Z,99865.41
2023-04-25T00:32:32.439Z,99856.72
2023-04-25T00:35:00.396Z,99865.34
2023-04-25T00:37:28.827Z,99860.00
2023-04-25T00:39:59.012Z,99858.00
2023-04-25T00:42:27.044Z,99852.06
2023-04-25T00:44:55.585Z,99851.19
2023-04-25T00:47:24.789Z,99844.66
2023-04-25T00:49:54.187Z,99843.81
2023-04-25T00:52:22.045Z,99848.13
2023-04-25T00:54:49.885Z,99825.28
2023-04-25T00:57:17.764Z,99842.69
2023-04-25T00:59:49.648Z,99839.16
2023-04-25T01:02:17.745Z,99820.09
2023-04-25T01:04:46.099Z,99826.06
2023-04-25T01:07:14.341Z,99834.94
2023-04-25T01:09:42.760Z,99827.09
2023-04-25T01:12:10.742Z,99829.78
2023-04-25T01:14:38.831Z,99831.41
2023-04-25T01:17:09.941Z,99819.34
2023-04-25T01:19:37.988Z,99829.84
2023-04-25T01:22:06.136Z,99829.78
2023-04-25T01:24:34.260Z,99828.88
2023-04-25T01:27:03.104Z,99830.78
2023-04-25T01:29:31.900Z,99828.13
2023-04-25T01:32:00.963Z,99829.31
2023-04-25T01:34:28.822Z,99833.88
2023-04-25T01:37:01.767Z,99824.22
2023-04-25T01:39:30.574Z,99832.56
2023-04-25T01:42:00.523Z,99833.50
2023-04-25T01:44:28.573Z,99832.91
2023-04-25T01:46:56.370Z,99837.34
2023-04-25T01:49:24.748Z,99830.53
2023-04-25T01:51:52.672Z,99830.38
2023-04-25T01:54:21.269Z,99825.91
2023-04-25T01:56:53.098Z,99825.81
2023-04-25T01:59:22.848Z,99831.25
2023-04-25T02:02:13.925Z,99832.34
2023-04-25T02:04:41.894Z,99833.13
2023-04-25T02:07:10.484Z,99833.19
2023-04-25T02:09:46.728Z,99830.75
2023-04-25T02:12:14.744Z,99837.66
2023-04-25T02:15:06.945Z,99830.72
2023-04-25T02:17:46.176Z,99817.75
2023-04-25T02:20:14.066Z,99826.13
2023-04-25T02:22:41.851Z,99826.38
2023-04-25T02:25:11.320Z,99831.38
2023-04-25T02:27:39.436Z,99834.06
2023-04-25T02:30:09.533Z,99830.53
2023-04-25T02:32:38.369Z,99827.94
2023-04-25T02:35:07.222Z,99822.69
2023-04-25T02:37:36.584Z,99833.19
2023-04-25T02:40:05.401Z,99822.50
2023-04-25T02:42:34.223Z,99819.00
2023-04-25T02:45:05.537Z,99810.97
2023-04-25T02:47:33.502Z,99811.06
2023-04-25T02:50:01.268Z,99816.16
2023-04-25T02:52:29.678Z,99817.03
2023-04-25T02:55:05.833Z,99803.06
2023-04-25T02:57:35.481Z,99815.06
2023-04-25T03:00:07.658Z,99795.78
2023-04-25T03:02:35.599Z,99814.97
2023-04-25T03:05:04.191Z,99801.09
2023-04-25T03:07:32.312Z,99808.78
2023-04-25T03:10:00.069Z,99805.25
2023-04-25T03:12:27.858Z,99805.25
2023-04-25T03:14:55.651Z,99802.59
2023-04-25T03:17:23.414Z,99799.81
2023-04-25T03:19:51.319Z,99806.09
2023-04-25T03:22:19.506Z,99805.41
2023-04-25T03:24:48.011Z,99796.06
2023-04-25T03:27:15.768Z,99800.50
2023-04-25T03:29:44.508Z,99803.22
2023-04-25T03:32:12.409Z,99792.88
2023-04-25T03:34:41.052Z,99797.50
2023-04-25T03:37:08.778Z,99796.81
2023-04-25T03:39:39.482Z,99804.22
2023-04-25T03:42:08.142Z,99795.81
2023-04-25T03:44:36.021Z,99797.59
2023-04-25T03:47:04.059Z,99808.44
2023-04-25T03:49:33.529Z,99802.31
2023-04-25T03:52:03.931Z,99801.63
2023-04-25T03:54:38.114Z,99795.66
2023-04-25T03:57:18.478Z,99799.34
2023-04-25T03:59:46.283Z,99807.19
2023-04-25T04:02:15.800Z,99798.47
2023-04-25T04:04:45.230Z,99808.13
2023-04-25T04:07:13.700Z,99799.25
2023-04-25T04:09:43.651Z,99811.56
2023-04-25T04:12:17.065Z,99802.00
2023-04-25T04:14:45.630Z,99805.38
2023-04-25T04:17:13.533Z,99807.00
2023-04-25T04:19:41.341Z,99807.09
2023-04-25T04:22:13.609Z,99815.88
2023-04-25T04:24:44.846Z,99809.78
2023-04-25T04:27:14.298Z,99813.22
2023-04-25T04:30:01.311Z,99820.53
2023-04-25T04:32:38.739Z,99820.53
2023-04-25T04:35:07.932Z,99807.44
2023-04-25T04:37:35.836Z,99804.59
2023-04-25T04:40:06.224Z,99806.09
2023-04-25T04:42:49.051Z,99806.97
2023-04-25T04:45:44.150Z,99802.81
2023-04-25T04:48:36.255Z,99811.66
2023-04-25T04:51:04.784Z,99816.16
2023-04-25T04:54:03.248Z,99817.84
2023-04-25T04:56:54.083Z,99823.88
2023-04-25T04:59:24.614Z,99824.59
2023-04-25T05:02:11.091Z,99834.09
2023-04-25T05:04:38.912Z,99834.72
2023-04-25T05:07:21.121Z,99830.50
2023-04-25T05:10:05.470Z,99833.78
2023-04-25T05:12:44.213Z,99825.06
2023-04-25T05:15:12.468Z,99822.09
2023-04-25T05:18:00.532Z,99840.44
2023-04-25T05:20:48.598Z,99824.38
2023-04-25T05:23:37.168Z,99820.75
2023-04-25T05:26:25.138Z,99829.38
2023-04-25T05:29:11.274Z,99825.75
2023-04-25T05:31:59.412Z,99838.78
2023-04-25T05:34:27.234Z,99835.81
2023-04-25T05:36:58.281Z,99838.28
2023-04-25T05:39:28.307Z,99847.72
2023-04-25T05:42:28.806Z,99844.97
2023-04-25T05:45:23.159Z,99843.16
2023-04-25T05:48:12.562Z,99845.66
2023-04-25T05:50:51.158Z,99839.28
2023-04-25T05:53:45.401Z,99844.22
2023-04-25T05:56:14.698Z,99834.31
2023-04-25T05:58:42.428Z,99846.31
2023-04-25T06:01:13.677Z,99835.78
2023-04-25T06:03:46.377Z,99842.59
2023-04-25T06:06:16.825Z,99854.94
2023-04-25T06:08:48.032Z,99849.44
2023-04-25T06:11:22.624Z,99854.53
2023-04-25T06:13:50.735Z,99849.25
2023-04-25T06:16:20.627Z,99855.78
2023-04-25T06:18:48.477Z,99865.28
2023-04-25T06:21:16.850Z,99868.63
2023-04-25T06:23:47.054Z,99863.13
2023-04-25T06:26:21.184Z,99872.44
2023-04-25T06:28:49.723Z,99856.31
2023-04-25T06:31:17.519Z,99878.31
2023-04-25T06:33:49.399Z,99876.84
2023-04-25T06:36:17.253Z,99870.88
2023-04-25T06:38:48.094Z,99878.38
2023-04-25T06:41:19.770Z,99872.53
2023-04-25T06:43:47.648Z,99867.50
2023-04-25T06:46:31.165Z,99872.50
2023-04-25T06:49:00.520Z,99872.50
2023-04-25T06:51:32.750Z,99876.47
2023-04-25T06:54:02.456Z,99883.53
2023-04-25T06:56:51.649Z,99882.88
2023-04-25T06:59:24.267Z,99883.53
2023-04-25T07:01:52.499Z,99883.47
2023-04-25T07:04:23.740Z,99869.50
2023-04-25T07:06:57.846Z,99887.78
2023-04-25T07:09:35.450Z,99879.94
2023-04-25T07:12:07.409Z,99890.34
2023-04-25T07:14:35.932Z,99890.03
2023-04-25T07:17:03.823Z,99883.59
2023-04-25T07:19:34.174Z,99884.09
2023-04-25T07:22:05.160Z,99882.78
2023-04-25T07:24:36.999Z,99893.56
2023-04-25T07:27:07.239Z,99893.31
2023-04-25T07:29:53.172Z,99890.53
2023-04-25T07:32:29.521Z,99889.69
2023-04-25T07:34:57.889Z,99889.50
2023-04-25T07:37:27.495Z,99887.69
2023-04-25T07:40:10.741Z,99882.81
2023-04-25T07:42:45.820Z,99896.19
2023-04-25T07:45:17.532Z,99897.03
2023-04-25T07:47:48.916Z,99898.16
2023-04-25T07:50:23.203Z,99901.59
2023-04-25T07:52:50.939Z,99905.91
2023-04-25T07:55:29.962Z,99909.25
2023-04-25T07:58:09.843Z,99916.16
2023-04-25T08:00:40.936Z,99917.03
2023-04-25T08:03:29.498Z,99926.50
2023-04-25T08:05:59.355Z,99921.97
2023-04-25T08:08:31.093Z,99915.16
2023-04-25T08:10:58.921Z,99936.19
2023-04-25T08:13:27.840Z,99939.72
2023-04-25T08:15:57.253Z,99933.53
2023-04-25T08:18:25.034Z,99939.97
2023-04-25T08:20:54.446Z,99942.66
2023-04-25T08:23:22.248Z,99951.88
2023-04-25T08:25:55.332Z,99945.94
2023-04-25T08:28:29.286Z,99949.56
2023-04-25T08:31:00.064Z,99959.31
2023-04-25T08:33:43.873Z,99977.06
2023-04-25T08:36:39.628Z,99975.84
2023-04-25T08:39:19.900Z,99982.25
2023-04-25T08:42:10.543Z,99997.16
2023-04-25T08:44:39.696Z,99993.25
2023-04-25T08:47:08.044Z,99997.91
2023-04-25T08:49:55.247Z,100005.38
2023-04-25T08:52:28.722Z,100002.16
2023-04-25T08:54:58.347Z,100011.19
2023-04-25T08:57:27.072Z,100004.03
2023-04-25T08:59:56.412Z,100016.53
2023-04-25T09:02:27.950Z,100013.84
2023-04-25T09:04:56.527Z,100015.75
2023-04-25T09:07:24.818Z,100008.38
2023-04-25T09:09:55.560Z,100029.50
2023-04-25T09:12:26.129Z,100018.63
2023-04-25T09:15:10.528Z,100036.25
2023-04-25T09:18:03.582Z,100043.63
2023-04-25T09:23:22.908Z,100046.78
2023-04-25T09:25:56.108Z,100052.84
2023-04-25T09:28:30.723Z,100052.09
2023-04-25T09:31:02.846Z,100060.91
2023-04-25T09:33:36.818Z,100070.22
2023-04-25T09:36:10.241Z,100072.41
2023-04-25T09:38:53.106Z,100070.31
2023-04-25T09:41:29.013Z,100070.75
2023-04-25T09:44:04.717Z,100085.69
2023-04-25T09:46:39.460Z,100091.78
2023-04-25T09:49:22.044Z,100091.66
2023-04-25T09:52:02.130Z,100097.84
2023-04-25T09:54:52.904Z,100096.84
2023-04-25T09:57:27.475Z,100096.50
2023-04-25T09:59:58.507Z,100102.34
2023-04-25T10:02:30.508Z,100110.13
2023-04-25T10:05:10.644Z,100112.34
2023-04-25T10:07:41.790Z,100105.91
2023-04-25T10:10:14.475Z,100109.28
2023-04-25T10:12:45.532Z,100108.09
2023-04-25T10:15:15.804Z,100101.53
2023-04-25T10:17:46.341Z,100097.66
2023-04-25T10:20:15.842Z,100109.47
2023-04-25T10:22:48.314Z,100119.19
2023-04-25T10:25:18.572Z,100122.09
2023-04-25T10:27:46.450Z,100124.00
2023-04-25T10:30:17.421Z,100128.56
2023-04-25T10:32:46.604Z,100123.56
2023-04-25T10:35:25.870Z,100130.00
2023-04-25T10:38:10.926Z,100120.75
2023-04-25T10:40:39.423Z,100124.16
2023-04-25T10:43:32.074Z,100130.16
2023-04-25T10:46:01.754Z,100118.81
2023-04-25T10:48:31.964Z,100130.59
2023-04-25T10:51:16.842Z,100143.88
2023-04-25T10:54:09.280Z,100147.41
2023-04-25T10:56:46.861Z,100141.66
2023-04-25T10:59:19.271Z,100146.53
2023-04-25T11:01:53.606Z,100137.16
2023-04-25T11:04:41.704Z,100141.06
2023-04-25T11:07:33.182Z,100141.44
2023-04-25T11:10:05.172Z,100147.34
2023-04-25T11:12:33.398Z,100144.97
2023-04-25T11:15:04.262Z,100149.22
2023-04-25T11:17:32.565Z,100160.03
2023-04-25T11:20:01.324Z,100153.81
2023-04-25T11:22:29.620Z,100162.06
2023-04-25T11:24:58.906Z,100164.91
2023-04-25T11:27:26.663Z,100159.88
2023-04-25T11:29:56.042Z,100165.84
2023-04-25T11:32:25.536Z,100172.78
2023-04-25T11:34:57.010Z,100159.56
2023-04-25T11:37:24.811Z,100166.31
2023-04-25T11:39:53.029Z,100167.88
2023-04-25T11:42:22.487Z,100172.19
2023-04-25T11:44:52.720Z,100177.22
2023-04-25T11:47:20.527Z,100174.47
2023-04-25T11:49:49.709Z,100177.22
2023-04-25T11:52:18.410Z,100167.38
2023-04-25T11:54:46.238Z,100190.81
2023-04-25T11:57:14.102Z,100174.34
2023-04-25T11:59:42.144Z,100177.75
2023-04-25T12:02:11.901Z,100187.78
2023-04-25T12:04:42.696Z,100197.34
2023-04-25T12:07:15.762Z,100191.16
2023-04-25T12:09:54.399Z,100191.75
2023-04-25T12:12:34.815Z,100196.81
2023-04-25T12:15:25.361Z,100198.06
2023-04-25T12:17:57.806Z,100200.19
2023-04-25T12:20:27.033Z,100205.69
2023-04-25T12:22:56.096Z,100193.44
2023-04-25T12:25:41.026Z,100197.97
2023-04-25T12:28:26.231Z,100186.69
2023-04-25T12:31:05.338Z,100192.66
2023-04-25T12:33:39.819Z,100190.91
2023-04-25T12:36:12.428Z,100191.88
2023-04-25T12:38:43.704Z,100195.50
2023-04-25T12:41:12.487Z,100202.16
2023-04-25T12:43:40.514Z,100202.94
2023-04-25T12:46:08.353Z,100192.38
2023-04-25T12:48:36.321Z,100207.69
2023-04-25T12:51:04.215Z,100209.59
2023-04-25T12:53:33.244Z,100207.09
2023-04-25T12:56:03.496Z,100211.81
2023-04-25T12:58:32.590Z,100213.13
2023-04-25T13:01:00.541Z,100205.88
2023-04-25T13:03:29.470Z,100217.63
2023-04-25T13:05:57.437Z,100219.03
2023-04-25T13:08:25.173Z,100217.69
2023-04-25T13:10:52.920Z,100202.22
2023-04-25T13:13:21.296Z,100217.66
2023-04-25T13:15:48.985Z,100214.50
2023-04-25T13:18:19.054Z,100203.34
2023-04-25T13:20:47.241Z,100216.97
2023-04-25T13:23:14.979Z,100202.16
2023-04-25T13:25:44.569Z,100209.56
2023-04-25T13:28:12.243Z,100200.97
2023-04-25T13:30:43.668Z,100213.72
2023-04-25T13:33:13.462Z,100221.22
2023-04-25T13:35:44.152Z,100212.03
2023-04-25T13:38:11.854Z,100213.22
2023-04-25T13:40:41.282Z,100209.00
2023-04-25T13:43:09.114Z,100216.78
2023-04-25T13:45:40.469Z,100217.44
2023-04-25T13:48:10.077Z,100214.66
2023-04-25T13:50:37.866Z,100214.56
2023-04-25T13:53:05.764Z,100210.63
2023-04-25T13:55:38.060Z,100215.91
2023-04-25T13:58:11.039Z,100209.97
2023-04-25T14:00:40.436Z,100212.81
2023-04-25T14:03:12.981Z,100210.63
2023-04-25T14:05:41.213Z,100218.50
2023-04-25T14:08:10.927Z,100215.78
2023-04-25T14:10:40.628Z,100214.34
2023-04-25T14:13:10.666Z,100215.66
2023-04-25T14:15:41.214Z,100217.41
2023-04-25T14:18:10.601Z,100217.41
2023-04-25T14:20:38.413Z,100215.78
2023-04-25T14:23:08.333Z,100217.97
2023-04-25T14:25:37.342Z,100216.66
2023-04-25T14:28:05.204Z,100223.28
2023-04-25T14:30:35.035Z,100234.44
2023-04-25T14:33:04.543Z,100230.38
2023-04-25T14:35:32.250Z,100228.94
2023-04-25T14:41:30.043Z,100223.09
2023-04-25T14:43:59.681Z,100225.69
2023-04-25T14:46:30.389Z,100219.25
2023-04-25T14:49:00.524Z,100201.53
2023-04-25T14:51:28.616Z,100203.81
2023-04-25T14:53:58.005Z,100210.53
2023-04-25T14:56:31.103Z,100213.78
2023-04-25T14:59:00.623Z,100217.13
2023-04-25T15:01:28.931Z,100221.25
2023-04-25T15:03:59.440Z,100225.38
2023-04-25T15:06:30.844Z,100220.88
2023-04-25T15:09:05.790Z,100214.44
2023-04-25T15:11:38.746Z,100214.66
2023-04-25T15:14:10.278Z,100224.91
2023-04-25T15:16:38.200Z,100219.91
2023-04-25T15:19:06.837Z,100229.22
2023-04-25T15:21:37.759Z,100222.81
2023-04-25T15:24:07.035Z,100232.38
2023-04-25T15:26:35.246Z,100244.53
2023-04-25T15:29:05.662Z,100241.25
2023-04-25T15:31:38.159Z,100248.47
2023-04-25T15:34:06.321Z,100257.03
2023-04-25T15:36:34.141Z,100259.06
2023-04-25T15:39:04.213Z,100269.31
2023-04-25T15:41:32.777Z,100275.19
2023-04-25T15:44:05.260Z,100279.31
2023-04-25T15:46:34.940Z,100285.41
2023-04-25T15:49:02.968Z,100289.59
2023-04-25T15:51:33.906Z,100292.06
2023-04-25T15:54:02.788Z,100301.31
2023-04-25T15:56:32.922Z,100309.81
2023-04-25T15:59:01.758Z,100316.66
2023-04-25T16:01:31.473Z,100311.00
2023-04-25T16:04:02.103Z,100315.88
2023-04-25T16:06:34.435Z,100318.13
2023-04-25T16:09:10.487Z,100309.22
2023-04-25T16:11:41.475Z,100327.03
2023-04-25T16:14:09.685Z,100326.72
2023-04-25T16:16:39.944Z,100325.94
2023-04-25T16:19:11.256Z,100327.88
2023-04-25T16:21:39.845Z,100331.72
2023-04-25T16:24:11.171Z,100324.78
2023-04-25T16:26:43.800Z,100322.50
2023-04-25T16:29:17.741Z,100329.47
2023-04-25T16:31:48.892Z,100325.34
2023-04-25T16:37:54.164Z,100328.75
2023-04-25T16:40:29.942Z,100329.69
2023-04-25T16:43:06.794Z,100320.91
2023-04-25T16:45:37.182Z,100319.09
2023-04-25T16:48:06.799Z,100321.13
2023-04-25T16:50:36.202Z,100324.53
2023-04-25T16:53:09.286Z,100327.38
2023-04-25T16:55:40.066Z,100324.53
2023-04-25T16:58:12.088Z,100319.28
2023-04-25T17:00:41.944Z,100319.00
2023-04-25T17:03:10.246Z,100323.28
2023-04-25T17:05:38.701Z,100324.13
2023-04-25T17:08:08.604Z,100317.06
2023-04-25T17:10:38.148Z,100310.84
2023-04-25T17:13:07.174Z,100322.97
2023-04-25T17:15:36.337Z,100327.31
2023-04-25T17:18:06.287Z,100329.78
2023-04-25T17:20:35.584Z,100329.69
2023-04-25T17:23:04.272Z,100337.63
2023-04-25T17:25:33.805Z,100336.94
2023-04-25T17:28:04.212Z,100344.06
2023-04-25T17:30:33.035Z,100347.63
2023-04-25T17:33:01.529Z,100345.00
2023-04-25T17:35:29.823Z,100359.31
2023-04-25T17:37:58.116Z,100350.63
2023-04-25T17:40:27.191Z,100345.63
2023-04-25T17:42:58.174Z,100351.94
2023-04-25T17:45:26.433Z,100347.63
2023-04-25T17:47:54.528Z,100358.28
2023-04-25T17:50:23.129Z,100353.91
2023-04-25T17:52:52.047Z,100360.94
2023-04-25T17:55:22.615Z,100368.09
2023-04-25T17:57:50.576Z,100361.16
2023-04-25T18:00:20.086Z,100365.84
2023-04-25T18:02:51.499Z,100358.75
2023-04-25T18:05:21.253Z,100363.22
2023-04-25T18:07:49.820Z,100365.66
2023-04-25T18:10:19.313Z,100378.75
2023-04-25T18:12:47.397Z,100373.53
2023-04-25T18:15:15.987Z,100389.44
2023-04-25T18:17:45.445Z,100390.50
2023-04-25T18:20:17.960Z,100382.78
2023-04-25T18:22:49.098Z,100370.50
2023-04-25T18:25:18.630Z,100366.00
2023-04-25T18:27:53.903Z,100379.69
2023-04-25T18:30:23.935Z,100382.63
2023-04-25T18:32:53.515Z,100381.97
2023-04-25T18:35:22.572Z,100389.84
2023-04-25T18:37:51.559Z,100387.19
2023-04-25T18:40:20.100Z,100396.91
2023-04-25T18:42:50.099Z,100408.53
2023-04-25T18:45:20.448Z,100408.94
2023-04-25T18:47:49.626Z,100415.06
2023-04-25T18:50:20.873Z,100417.91
2023-04-25T18:52:50.021Z,100433.97
2023-04-25T18:55:18.787Z,100435.84
2023-04-25T18:57:47.122Z,100436.97
2023-04-25T19:00:17.345Z,100448.66
2023-04-25T19:02:45.325Z,100446.06
2023-04-25T19:05:13.273Z,100453.09
2023-04-25T19:07:41.464Z,100450.88
2023-04-25T19:10:09.631Z,100456.16
2023-04-25T19:12:37.705Z,100444.53
2023-04-25T19:15:06.812Z,100441.00
2023-04-25T19:17:34.740Z,100459.34
2023-04-25T19:20:02.520Z,100449.66
2023-04-25T19:22:30.933Z,100458.41
2023-04-25T19:25:09.772Z,100476.16
2023-04-25T19:27:38.477Z,100472.75
2023-04-25T19:30:10.600Z,100474.56
2023-04-25T19:32:39.069Z,100475.63
2023-04-25T19:35:11.396Z,100469.56
2023-04-25T19:37:45.733Z,100477.31
2023-04-25T19:40:16.001Z,100463.88
2023-04-25T19:42:44.848Z,100470.16
2023-04-25T19:45:13.097Z,100463.97
2023-04-25T19:47:42.299Z,100476.28
2023-04-25T19:50:11.137Z,100471.22
2023-04-25T19:52:39.510Z,100468.63
2023-04-25T19:55:08.537Z,100469.56
2023-04-25T19:57:37.844Z,100473.22
2023-04-25T20:00:10.887Z,100480.31
2023-04-25T20:02:45.074Z,100490.47
2023-04-25T20:05:17.793Z,100491.38
2023-04-25T20:07:45.475Z,100489.78
2023-04-25T20:10:15.677Z,100498.41
2023-04-25T20:12:45.026Z,100482.56
2023-04-25T20:15:12.843Z,100493.84
2023-04-25T20:17:41.635Z,100489.53
2023-04-25T20:20:11.323Z,100492.13
2023-04-25T20:22:40.611Z,100494.84
2023-04-25T20:25:10.458Z,100495.72
2023-04-25T20:27:38.364Z,100493.13
2023-04-25T20:30:12.734Z,100504.53
2023-04-25T20:32:41.209Z,100504.59
2023-04-25T20:35:10.030Z,100505.38
2023-04-25T20:37:38.002Z,100505.34
2023-04-25T20:40:09.342Z,100507.00
2023-04-25T20:42:38.134Z,100498.19
2023-04-25T20:45:07.853Z,100499.94
2023-04-25T20:47:35.962Z,100497.19
2023-04-25T20:50:05.955Z,100498.88
2023-04-25T20:52:33.913Z,100506.06
2023-04-25T20:55:01.972Z,100498.00
2023-04-25T20:57:29.817Z,100497.25
2023-04-25T20:59:57.999Z,100500.00
2023-04-25T21:02:25.896Z,100504.31
2023-04-25T21:04:53.700Z,100506.13
2023-04-25T21:07:21.563Z,100504.41
2023-04-25T21:09:49.417Z,100510.69
2023-04-25T21:12:17.109Z,100508.06
2023-04-25T21:14:44.813Z,100518.88
2023-04-25T21:17:12.555Z,100513.66
2023-04-25T21:19:41.100Z,100514.72
2023-04-25T21:22:08.850Z,100523.41
2023-04-25T21:24:37.437Z,100514.69
2023-04-25T21:27:05.182Z,100521.00
2023-04-25T21:29:33.164Z,100523.41
2023-04-25T21:32:01.282Z,100528.03
2023-04-25T21:34:29.025Z,100529.69
2023-04-25T21:36:56.718Z,100528.81
2023-04-25T21:39:25.089Z,100527.94
2023-04-25T21:41:52.818Z,100527.19
2023-04-25T21:44:20.540Z,100529.81
2023-04-25T21:46:48.246Z,100523.81
2023-04-25T21:49:16.479Z,100531.75
2023-04-25T21:51:44.521Z,100538.81
2023-04-25T21:54:12.271Z,100544.09
2023-04-25T21:56:40.042Z,100536.22
2023-04-25T21:59:07.764Z,100542.44
2023-04-25T22:01:35.524Z,100539.94
2023-04-25T22:04:03.445Z,100548.81
2023-04-25T22:06:32.255Z,100553.28
2023-04-25T22:08:59.973Z,100554.22
2023-04-25T22:11:28.494Z,100558.81
2023-04-25T22:13:56.351Z,100552.53
2023-04-25T22:16:24.253Z,100549.09
2023-04-25T22:18:53.162Z,100556.16
2023-04-25T22:21:22.772Z,100560.69
2023-04-25T22:23:52.172Z,100557.34
2023-04-25T22:26:20.496Z,100548.50
2023-04-25T22:28:48.215Z,100553.16
2023-04-25T22:31:16.250Z,100546.09
2023-04-25T22:33:46.972Z,100554.91
2023-04-25T22:36:15.120Z,100550.56
2023-04-25T22:38:43.441Z,100559.50
2023-04-25T22:41:11.275Z,100554.28
2023-04-25T22:43:42.042Z,100560.50
2023-04-25T22:46:21.197Z,100568.56
2023-04-25T22:48:49.244Z,100563.47
2023-04-25T22:51:17.638Z,100570.53
2023-04-25T22:53:45.403Z,100566.25
2023-04-25T22:56:13.315Z,100554.06
2023-04-25T22:58:41.491Z,100565.66
2023-04-25T23:01:10.265Z,100568.53
2023-04-25T23:03:38.435Z,100561.59
2023-04-25T23:06:06.459Z,100567.88
2023-04-25T23:08:35.185Z,100565.38
2023-04-25T23:11:09.316Z,100563.63
2023-04-25T23:13:37.185Z,100568.38
2023-04-25T23:16:10.730Z,100561.56
2023-04-25T23:18:40.209Z,100568.88
2023-04-25T23:21:12.114Z,100573.53
2023-04-25T23:23:39.879Z,100571.28
2023-04-25T23:26:09.752Z,100572.38
2023-04-25T23:28:41.432Z,100576.19
2023-04-25T23:31:10.659Z,100570.31
2023-04-25T23:33:39.216Z,100581.19
2023-04-25T23:36:07.637Z,100582.44
2023-04-25T23:38:35.816Z,100578.31
2023-04-25T23:41:03.472Z,100582.97
2023-04-25T23:43:31.196Z,100593.66
2023-04-25T23:45:58.949Z,100591.22
2023-04-25T23:48:26.728Z,100591.22
2023-04-25T23:50:54.415Z,100601.91
2023-04-25T23:53:22.146Z,100599.38
2023-04-25T23:55:49.860Z,100590.81
2023-04-25T23:58:17.581Z,100603.03
